Time;durP1;ratioP1;P1;durP2;ratioP2;P2;SDS_P1;SDS_P2;PMS_P1;PMS_P2;Temp;Humidity;BMP_temperature;BMP_pressure;BME280_temperature;BME280_humidity;BME280_pressure;Samples;Min_cycle;Max_cycle;Signal;HPM_P1;HPM_P2
2024/03/12 00:02:21;;;;;;;;;36.00;25.00;;;;;6.35;87.15;100036.77;112324;241;161450;-50
2024/03/12 00:05:08;;;;;;;;;16.67;13.33;;;;;6.35;87.21;100035.34;112596;244;39407;-50
2024/03/12 00:07:48;;;;;;;;;17.00;13.25;;;;;6.37;87.14;100029.42;112424;241;162019;-52
2024/03/12 00:10:27;;;;;;;;;18.00;14.00;;;;;6.37;87.25;100028.52;112538;244;41464;-54
2024/03/12 00:13:06;;;;;;;;;18.00;14.00;;;;;6.37;87.57;100027.58;112393;241;161800;-54
2024/03/12 00:15:49;;;;;;;;;22.00;15.00;;;;;6.34;87.37;100025.99;112440;244;41033;-54
2024/03/12 00:18:32;;;;;;;;;19.00;15.33;;;;;6.32;87.32;100026.73;112606;244;41493;-52
2024/03/12 00:21:13;;;;;;;;;22.50;17.00;;;;;6.34;87.29;100021.73;112406;244;40937;-51
2024/03/12 00:23:51;;;;;;;;;20.00;16.00;;;;;6.33;87.21;100017.90;112432;244;39941;-53
2024/03/12 00:26:33;;;;;;;;;24.50;17.00;;;;;6.34;87.28;100016.64;112286;240;161459;-54
2024/03/12 00:29:12;;;;;;;;;25.00;20.00;;;;;6.37;87.16;100017.02;112822;243;39575;-54
2024/03/12 00:31:52;;;;;;;;;19.00;14.75;;;;;6.39;87.27;100020.97;112468;242;162073;-55
2024/03/12 00:34:28;;;;;;;;;30.75;23.00;;;;;6.37;87.74;100014.95;112572;244;40804;-51
2024/03/12 00:37:09;;;;;;;;;22.75;14.75;;;;;6.36;87.59;100010.52;112395;242;161970;-51
2024/03/12 00:39:50;;;;;;;;;22.00;16.00;;;;;6.33;87.58;100009.83;112466;245;39537;-50
2024/03/12 00:42:28;;;;;;;;;17.33;13.00;;;;;6.30;87.70;100009.34;112436;244;39818;-50
2024/03/12 00:45:11;;;;;;;;;16.33;12.00;;;;;6.26;88.11;100012.05;112449;244;39490;-53
2024/03/12 00:47:54;;;;;;;;;19.00;15.00;;;;;6.25;87.93;100013.73;112548;244;39634;-53
2024/03/12 00:50:30;;;;;;;;;23.00;17.00;;;;;6.25;88.15;100011.05;112340;242;163644;-54
2024/03/12 00:53:08;;;;;;;;;19.00;14.00;;;;;6.25;87.81;100009.01;112472;244;42099;-53
2024/03/12 00:55:47;;;;;;;;;21.50;17.00;;;;;6.26;87.71;100008.87;112350;244;162887;-54
2024/03/12 00:58:24;;;;;;;;;29.67;20.00;;;;;6.24;88.13;100010.44;112483;244;39724;-53
2024/03/12 01:01:03;;;;;;;;;18.75;15.00;;;;;6.23;88.06;100008.48;112375;242;162197;-53
2024/03/12 01:03:42;;;;;;;;;15.50;12.50;;;;;6.22;88.10;100004.98;112428;245;40853;-54
2024/03/12 01:06:20;;;;;;;;;21.00;16.25;;;;;6.23;88.33;100004.68;112482;245;40842;-53
2024/03/12 01:08:58;;;;;;;;;21.50;16.00;;;;;6.23;87.94;100004.48;112280;242;161317;-51
2024/03/12 01:11:34;;;;;;;;;25.50;18.00;;;;;6.28;87.89;100003.27;112401;245;39828;-51
2024/03/12 01:14:07;;;;;;;;;21.67;15.33;;;;;6.21;88.16;100004.02;112323;242;161708;-51
2024/03/12 01:16:46;;;;;;;;;15.67;12.33;;;;;6.20;88.02;100004.45;112412;245;39153;-52
2024/03/12 01:19:26;;;;;;;;;24.00;19.00;;;;;6.23;88.06;100005.13;112320;242;161503;-54
2024/03/12 01:22:05;;;;;;;;;21.00;16.00;;;;;6.26;87.97;100005.41;112436;245;39768;-54
2024/03/12 01:24:45;;;;;;;;;23.00;17.00;;;;;6.27;88.00;100003.89;112336;242;161664;-53
2024/03/12 01:27:26;;;;;;;;;15.00;12.00;;;;;6.29;87.82;100007.05;112463;245;39504;-54
2024/03/12 01:30:07;;;;;;;;;18.50;14.00;;;;;6.29;87.99;100001.55;112476;245;41296;-55
2024/03/12 01:32:52;;;;;;;;;18.00;14.00;;;;;6.22;88.03;100000.91;112496;242;161650;-53
2024/03/12 01:35:37;;;;;;;;;17.00;13.00;;;;;6.23;88.16;99998.11;112474;245;40745;-52
2024/03/12 01:38:13;;;;;;;;;20.00;15.00;;;;;6.21;88.35;100001.13;112391;242;162488;-54
2024/03/12 01:40:58;;;;;;;;;20.00;14.50;;;;;6.22;88.34;100003.20;112450;245;39391;-54
2024/03/12 01:43:38;;;;;;;;;28.50;21.00;;;;;6.21;88.79;99999.55;112359;242;161489;-53
2024/03/12 01:46:16;;;;;;;;;17.50;13.00;;;;;6.18;88.77;100001.50;112430;244;38643;-54
2024/03/12 01:48:50;;;;;;;;;20.00;14.00;;;;;6.15;88.81;100004.23;112333;242;161666;-51
2024/03/12 01:51:31;;;;;;;;;21.00;16.67;;;;;6.13;88.91;99999.58;112399;245;41165;-51
2024/03/12 01:54:17;;;;;;;;;25.00;20.00;;;;;6.15;88.78;100003.27;112442;245;39429;-50
2024/03/12 01:56:52;;;;;;;;;18.00;14.00;;;;;6.15;88.83;99997.20;112360;242;161481;-51
2024/03/12 01:59:34;;;;;;;;;23.00;16.00;;;;;6.16;89.09;100000.10;112421;244;39278;-53
2024/03/12 02:02:16;;;;;;;;;27.00;17.00;;;;;6.17;88.77;99999.14;112258;242;161249;-53
2024/03/12 02:04:57;;;;;;;;;16.00;12.67;;;;;6.18;88.87;99998.17;112458;244;39863;-51
2024/03/12 02:07:31;;;;;;;;;23.50;17.00;;;;;6.15;88.96;99998.47;112317;241;161343;-50
2024/03/12 02:10:09;;;;;;;;;17.00;12.75;;;;;6.18;88.81;99998.26;112662;243;39519;-53
2024/03/12 02:12:57;;;;;;;;;23.75;17.25;;;;;6.18;89.11;99995.41;112635;241;162868;-54
2024/03/12 02:15:34;;;;;;;;;15.67;13.67;;;;;6.14;89.46;99998.61;112632;243;39688;-54
2024/03/12 02:18:08;;;;;;;;;20.25;14.00;;;;;6.13;89.26;99993.48;112895;243;41104;-53
2024/03/12 02:20:44;;;;;;;;;30.75;24.50;;;;;6.13;89.34;99995.29;112343;240;163819;-53
2024/03/12 02:23:28;;;;;;;;;21.25;16.00;;;;;6.12;89.62;99992.00;112838;243;40403;-53
2024/03/12 02:26:05;;;;;;;;;19.00;14.50;;;;;6.10;89.47;99987.96;112405;241;161843;-53
2024/03/12 02:28:44;;;;;;;;;22.00;14.00;;;;;6.08;89.64;99987.82;112809;243;41142;-54
2024/03/12 02:31:26;;;;;;;;;24.00;17.00;;;;;6.01;89.95;99989.00;112581;240;162563;-54
2024/03/12 02:34:07;;;;;;;;;19.67;14.00;;;;;6.02;89.86;99988.66;112635;243;39617;-53
2024/03/12 02:36:49;;;;;;;;;23.33;18.33;;;;;6.01;90.18;99988.58;112604;243;161677;-53
2024/03/12 02:39:25;;;;;;;;;27.67;19.00;;;;;6.01;89.80;99987.21;112452;244;39955;-53
2024/03/12 02:42:00;;;;;;;;;15.50;12.00;;;;;6.02;90.24;99990.41;112495;244;39751;-53
2024/03/12 02:44:34;;;;;;;;;18.25;13.00;;;;;6.02;90.31;99988.66;112266;241;161571;-51
2024/03/12 02:47:19;;;;;;;;;22.25;17.00;;;;;6.02;90.28;99990.98;112422;244;39463;-50
2024/03/12 02:49:57;;;;;;;;;16.33;11.67;;;;;6.04;90.09;99988.10;112361;242;161558;-52
2024/03/12 02:52:39;;;;;;;;;27.33;21.00;;;;;6.05;90.05;99987.49;112434;244;40852;-52
2024/03/12 02:55:20;;;;;;;;;22.75;16.50;;;;;6.10;89.93;99981.73;112362;241;161722;-54
2024/03/12 02:57:59;;;;;;;;;19.00;13.00;;;;;6.12;90.11;99982.42;112663;243;40936;-51
2024/03/12 03:00:36;;;;;;;;;22.67;16.00;;;;;6.06;90.29;99982.86;112653;241;161454;-51
2024/03/12 03:03:11;;;;;;;;;23.75;17.75;;;;;6.07;90.16;99979.74;112598;243;39204;-51
2024/03/12 03:05:51;;;;;;;;;25.50;16.00;;;;;6.09;90.14;99975.55;112813;243;40381;-52
2024/03/12 03:08:27;;;;;;;;;28.00;19.75;;;;;6.09;90.15;99976.59;112451;243;162566;-52
2024/03/12 03:11:02;;;;;;;;;17.75;11.50;;;;;6.05;90.44;99972.81;112738;242;39913;-52
2024/03/12 03:13:43;;;;;;;;;18.00;12.25;;;;;6.05;90.61;99968.28;112512;241;161523;-54
2024/03/12 03:16:22;;;;;;;;;17.67;13.67;;;;;6.08;90.58;99972.09;112625;243;39774;-54
2024/03/12 03:19:01;;;;;;;;;22.33;17.00;;;;;6.09;90.37;99971.66;112607;243;161693;-54
2024/03/12 03:21:46;;;;;;;;;23.00;16.00;;;;;6.08;90.82;99973.52;112551;243;39944;-53
2024/03/12 03:24:30;;;;;;;;;24.50;17.50;;;;;6.06;90.68;99971.40;112765;243;39070;-54
2024/03/12 03:27:09;;;;;;;;;23.25;17.00;;;;;6.07;90.82;99974.48;112463;243;40772;-53
2024/03/12 03:29:49;;;;;;;;;23.00;16.75;;;;;6.09;90.75;99974.31;112818;243;41268;-51
2024/03/12 03:32:29;;;;;;;;;18.75;15.00;;;;;6.10;90.84;99976.12;112348;241;162321;-50
2024/03/12 03:35:08;;;;;;;;;30.00;21.00;;;;;6.12;90.80;99975.88;112799;243;41223;-51
2024/03/12 03:37:50;;;;;;;;;21.00;13.00;;;;;6.13;90.72;99973.49;112526;240;161581;-52
2024/03/12 03:40:33;;;;;;;;;20.00;16.00;;;;;6.13;90.92;99971.39;112687;243;40944;-51
2024/03/12 03:43:15;;;;;;;;;20.00;15.00;;;;;6.07;91.08;99972.87;112644;243;162526;-54
2024/03/12 03:45:54;;;;;;;;;22.50;15.00;;;;;6.10;90.96;99970.96;112612;243;40261;-54
2024/03/12 03:48:34;;;;;;;;;18.00;13.00;;;;;6.10;91.25;99970.29;112862;243;40008;-51
2024/03/12 03:51:10;;;;;;;;;19.00;14.50;;;;;6.12;91.20;99972.40;112451;244;40077;-51
2024/03/12 03:53:50;;;;;;;;;21.25;14.75;;;;;6.09;91.21;99969.45;112597;244;41541;-50
2024/03/12 03:56:31;;;;;;;;;20.25;15.00;;;;;6.12;91.02;99966.07;112541;241;161465;-51
2024/03/12 03:59:15;;;;;;;;;19.00;13.50;;;;;6.13;91.24;99969.23;112780;243;40151;-54
2024/03/12 04:01:56;;;;;;;;;20.00;14.00;;;;;6.14;91.10;99967.45;112271;243;161357;-54
2024/03/12 04:04:37;;;;;;;;;19.25;13.25;;;;;6.11;91.20;99964.83;112706;243;40500;-52
2024/03/12 04:07:16;;;;;;;;;20.00;14.67;;;;;6.10;91.57;99961.67;112542;242;161777;-53
2024/03/12 04:09:57;;;;;;;;;25.33;17.33;;;;;6.12;91.08;99960.60;112496;244;39684;-51
2024/03/12 04:12:35;;;;;;;;;24.50;17.50;;;;;6.14;91.27;99961.54;112552;244;40288;-51
2024/03/12 04:15:16;;;;;;;;;20.50;14.25;;;;;6.10;91.74;99960.27;112463;243;40730;-51
2024/03/12 04:17:50;;;;;;;;;18.50;14.00;;;;;6.07;91.69;99956.45;112842;243;41019;-51
2024/03/12 04:20:28;;;;;;;;;24.00;15.50;;;;;6.08;91.76;99959.17;112440;241;161538;-50
2024/03/12 04:23:09;;;;;;;;;24.25;18.00;;;;;6.06;91.62;99959.57;112826;243;40144;-51
2024/03/12 04:25:45;;;;;;;;;23.00;16.67;;;;;6.08;91.45;99962.76;112516;241;161314;-50
2024/03/12 04:28:23;;;;;;;;;24.00;19.00;;;;;6.11;91.48;99959.39;112517;244;40056;-53
2024/03/12 04:30:57;;;;;;;;;25.00;18.00;;;;;6.13;91.54;99961.50;112331;244;161452;-53
2024/03/12 04:33:36;;;;;;;;;30.75;22.00;;;;;6.18;91.32;99963.42;112398;244;40745;-51
2024/03/12 04:36:22;;;;;;;;;20.00;15.25;;;;;6.15;91.59;99959.11;112488;244;40204;-50
2024/03/12 04:39:30;;;;;;;;;26.25;19.00;;;;;6.16;91.45;99962.92;112364;243;161303;-51
2024/03/12 04:42:09;;;;;;;;;24.33;18.00;;;;;6.17;91.41;99964.67;112771;243;39713;-51
2024/03/12 04:44:46;;;;;;;;;24.00;17.33;;;;;6.16;91.39;99967.63;112383;241;161465;-51
2024/03/12 04:47:22;;;;;;;;;26.00;18.00;;;;;6.15;91.64;99970.21;112800;243;40254;-51
2024/03/12 04:50:04;;;;;;;;;33.75;25.25;;;;;6.14;91.46;99974.80;112440;241;161291;-51
2024/03/12 04:52:45;;;;;;;;;27.00;20.00;;;;;6.20;91.28;99973.95;112404;244;39476;-52
2024/03/12 04:55:27;;;;;;;;;24.50;17.75;;;;;6.19;91.53;99972.64;112378;241;161512;-54
2024/03/12 04:58:06;;;;;;;;;19.25;14.00;;;;;6.16;91.58;99978.16;112492;244;38987;-52
2024/03/12 05:00:49;;;;;;;;;30.33;21.00;;;;;6.17;91.54;99974.13;112344;241;161911;-51
2024/03/12 05:03:31;;;;;;;;;25.25;17.00;;;;;6.19;91.70;99978.48;112549;243;39589;-51
2024/03/12 05:06:09;;;;;;;;;24.50;18.00;;;;;6.22;91.36;99981.63;112782;243;38962;-51
2024/03/12 05:08:49;;;;;;;;;19.00;12.67;;;;;6.24;91.24;99982.11;112388;241;161846;-51
2024/03/12 05:11:25;;;;;;;;;20.33;15.00;;;;;6.22;91.43;99979.47;112868;243;39399;-51
2024/03/12 05:14:03;;;;;;;;;21.75;14.25;;;;;6.22;91.62;99980.67;112516;241;161573;-52
2024/03/12 05:16:43;;;;;;;;;22.75;16.00;;;;;6.15;92.01;99984.29;112751;243;39919;-52
2024/03/12 05:19:27;;;;;;;;;19.50;15.00;;;;;6.16;91.89;99981.41;112578;242;162294;-54
2024/03/12 05:22:08;;;;;;;;;21.00;17.00;;;;;6.19;91.72;99984.45;112581;243;40277;-65
2024/03/12 05:24:49;;;;;;;;;27.67;20.00;;;;;6.19;91.79;99985.08;112704;241;164290;-55
2024/03/12 05:27:35;;;;;;;;;16.00;12.00;;;;;6.23;91.79;99987.92;112508;243;39713;-55
2024/03/12 05:30:14;;;;;;;;;16.75;11.00;;;;;6.21;91.99;99990.94;112801;243;39504;-51
2024/03/12 05:32:53;;;;;;;;;28.00;19.00;;;;;6.18;92.17;99990.22;112374;241;161378;-53
2024/03/12 05:35:31;;;;;;;;;26.67;19.33;;;;;6.21;91.90;99990.48;112780;243;41186;-54
2024/03/12 05:38:11;;;;;;;;;25.00;19.00;;;;;6.20;91.86;99994.13;112430;243;161222;-54
2024/03/12 05:41:14;;;;;;;;;23.67;16.67;;;;;6.21;92.10;99995.87;112736;243;40515;-53
2024/03/12 05:49:43;;;;;;;;;28.75;20.75;;;;;6.13;92.63;99998.86;112341;244;161473;-51
2024/03/12 05:52:20;;;;;;;;;24.00;16.75;;;;;6.15;92.79;100002.02;112438;244;39560;-51
2024/03/12 05:54:59;;;;;;;;;27.00;19.00;;;;;6.13;92.67;99999.00;112362;242;161723;-54
2024/03/12 05:57:38;;;;;;;;;33.00;21.00;;;;;6.08;92.83;100003.13;112408;244;40235;-54
2024/03/12 06:00:15;;;;;;;;;17.25;12.50;;;;;6.09;92.60;100001.13;112441;244;39747;-51
2024/03/12 06:02:56;;;;;;;;;23.50;16.50;;;;;6.12;92.56;100000.92;112408;241;162144;-54
2024/03/12 06:05:30;;;;;;;;;20.33;16.33;;;;;6.13;92.90;100002.64;112774;243;38886;-54
2024/03/12 06:08:07;;;;;;;;;21.00;15.00;;;;;6.14;92.62;100003.23;112531;241;161421;-54
2024/03/12 06:10:46;;;;;;;;;27.25;20.75;;;;;6.08;93.10;100006.23;112772;243;40097;-54
2024/03/12 06:13:31;;;;;;;;;23.50;17.00;;;;;6.09;92.88;100005.58;112597;243;161967;-54
2024/03/12 06:16:08;;;;;;;;;22.00;15.00;;;;;6.11;92.93;100008.54;112695;243;40919;-54
2024/03/12 06:18:46;;;;;;;;;19.00;14.00;;;;;6.09;93.17;100011.82;112731;241;161928;-51
2024/03/12 06:21:32;;;;;;;;;24.50;18.50;;;;;6.07;93.36;100008.09;112489;243;40018;-51
2024/03/12 06:24:10;;;;;;;;;24.00;17.00;;;;;6.10;93.05;100010.23;112796;243;39324;-54
2024/03/12 06:26:44;;;;;;;;;26.00;18.00;;;;;6.15;93.04;100011.55;112356;241;161616;-53
2024/03/12 06:29:22;;;;;;;;;20.75;13.00;;;;;6.11;93.30;100015.40;112796;243;39918;-51
2024/03/12 06:31:57;;;;;;;;;27.00;20.00;;;;;6.06;93.62;100015.05;112421;241;162195;-51
2024/03/12 06:34:36;;;;;;;;;16.25;12.00;;;;;6.08;93.32;100019.48;112487;244;39300;-54
2024/03/12 06:37:15;;;;;;;;;30.67;22.00;;;;;6.13;93.32;100020.83;112340;241;161924;-54
2024/03/12 06:39:53;;;;;;;;;22.00;17.00;;;;;6.17;93.25;100023.23;111951;245;597181;-51
2024/03/12 06:42:29;;;;;;;;;25.50;16.50;;;;;6.19;93.18;100029.27;112407;244;40969;-51
2024/03/12 06:45:05;;;;;;;;;22.50;17.00;;;;;6.25;93.02;100028.11;112443;242;39174;-53
2024/03/12 06:47:49;;;;;;;;;23.00;18.00;;;;;6.27;92.94;100035.21;112473;244;40605;-52
2024/03/12 06:50:27;;;;;;;;;27.00;19.00;;;;;6.27;92.92;100034.79;112349;240;162566;-54
2024/03/12 06:53:07;;;;;;;;;28.00;17.33;;;;;6.25;92.98;100036.45;112846;243;39515;-53
2024/03/12 06:55:47;;;;;;;;;23.00;15.00;;;;;6.29;92.91;100035.79;112565;240;161954;-54
2024/03/12 06:58:27;;;;;;;;;24.75;18.00;;;;;6.30;93.21;100035.59;112685;243;41145;-53
2024/03/12 07:01:09;;;;;;;;;26.00;16.00;;;;;6.24;93.53;100033.55;112633;241;162006;-53
2024/03/12 07:03:57;;;;;;;;;25.00;17.50;;;;;6.24;93.12;100032.98;112629;243;39486;-53
2024/03/12 07:06:37;;;;;;;;;32.00;22.67;;;;;6.32;92.94;100035.92;112808;242;39454;-53
2024/03/12 07:09:23;;;;;;;;;33.00;23.00;;;;;6.34;92.95;100031.76;112470;243;39651;-53
2024/03/12 07:12:07;;;;;;;;;26.00;18.75;;;;;6.33;93.03;100035.91;112825;243;40046;-53
2024/03/12 07:14:54;;;;;;;;;34.00;24.00;;;;;6.38;92.79;100038.98;112387;243;161695;-50
2024/03/12 07:17:28;;;;;;;;;30.00;19.00;;;;;6.39;92.90;100039.76;112805;243;40149;-51
2024/03/12 07:20:14;;;;;;;;;24.00;17.00;;;;;6.45;92.91;100041.88;112419;241;162008;-51
2024/03/12 07:22:59;;;;;;;;;27.00;19.00;;;;;6.51;92.79;100049.45;112713;243;39138;-53
2024/03/12 07:25:38;;;;;;;;;25.00;17.00;;;;;6.50;92.75;100047.77;112257;242;162707;-54
2024/03/12 07:28:15;;;;;;;;;25.33;17.67;;;;;6.52;92.50;100047.73;112655;243;41380;-51
2024/03/12 07:30:58;;;;;;;;;27.00;19.00;;;;;6.57;92.36;100044.20;112642;243;161866;-51
2024/03/12 07:33:43;;;;;;;;;27.25;18.75;;;;;6.61;92.34;100045.46;112506;243;39534;-53
2024/03/12 07:36:20;;;;;;;;;23.50;17.50;;;;;6.67;92.25;100046.00;112779;243;39258;-53
2024/03/12 07:39:24;;;;;;;;;34.33;22.33;;;;;6.70;92.12;100048.84;112340;241;160995;-54
2024/03/12 07:42:06;;;;;;;;;29.25;21.25;;;;;6.68;92.20;100050.91;112449;243;41054;-54
2024/03/12 07:44:41;;;;;;;;;22.67;15.33;;;;;6.66;92.22;100051.34;112338;241;160693;-53
2024/03/12 07:47:26;;;;;;;;;22.67;17.00;;;;;6.65;91.89;100051.09;112759;243;40729;-54
2024/03/12 07:50:03;;;;;;;;;25.00;18.67;;;;;6.64;91.96;100053.41;112454;241;162360;-51
2024/03/12 07:52:38;;;;;;;;;27.00;18.00;;;;;6.64;91.88;100047.64;112724;243;39301;-51
2024/03/12 07:55:13;;;;;;;;;24.00;17.00;;;;;6.65;91.92;100046.83;112561;241;161680;-54
2024/03/12 07:57:48;;;;;;;;;21.00;15.00;;;;;6.60;92.05;100050.96;112542;243;39168;-52
2024/03/12 08:00:23;;;;;;;;;25.75;17.00;;;;;6.64;92.04;100045.86;112769;243;41762;-51
2024/03/12 08:02:58;;;;;;;;;36.00;24.00;;;;;6.67;92.04;100044.44;112324;241;161684;-53
2024/03/12 08:05:33;;;;;;;;;31.00;23.00;;;;;6.68;92.18;100045.21;112732;242;41234;-53
2024/03/12 08:08:12;;;;;;;;;26.00;17.00;;;;;6.72;92.16;100044.39;112415;241;161880;-51
2024/03/12 08:10:48;;;;;;;;;22.25;16.25;;;;;6.70;91.94;100045.52;112695;243;39190;-51
2024/03/12 08:13:26;;;;;;;;;21.00;16.25;;;;;6.70;92.03;100044.77;112512;241;162268;-53
2024/03/12 08:16:01;;;;;;;;;24.00;17.00;;;;;6.77;91.85;100046.16;112520;243;39905;-53
2024/03/12 08:18:41;;;;;;;;;22.25;16.00;;;;;6.81;91.91;100047.27;112799;243;39035;-54
2024/03/12 08:21:24;;;;;;;;;33.75;23.75;;;;;6.82;91.83;100047.23;112436;244;40529;-51
2024/03/12 08:24:00;;;;;;;;;32.25;23.00;;;;;6.88;91.74;100054.97;112774;243;39244;-50
2024/03/12 08:26:42;;;;;;;;;21.33;15.00;;;;;6.92;91.74;100050.52;112355;241;161774;-51
2024/03/12 08:29:21;;;;;;;;;19.50;14.25;;;;;6.87;91.70;100054.49;112819;243;39481;-53
2024/03/12 08:32:05;;;;;;;;;34.67;23.33;;;;;6.88;91.76;100052.61;112296;242;162961;-54
2024/03/12 08:34:42;;;;;;;;;28.25;20.50;;;;;6.91;91.64;100056.52;112538;244;39551;-53
2024/03/12 08:37:23;;;;;;;;;22.00;16.00;;;;;6.92;91.56;100056.77;112365;243;162459;-55
2024/03/12 08:39:58;;;;;;;;;32.00;22.00;;;;;6.90;91.50;100058.58;112594;243;38984;-54
2024/03/12 08:42:40;;;;;;;;;34.00;23.75;;;;;6.87;91.40;100060.65;112812;243;39886;-54
2024/03/12 08:45:21;;;;;;;;;25.00;20.00;;;;;6.88;91.43;100063.52;112449;244;40037;-51
2024/03/12 08:48:00;;;;;;;;;28.25;19.75;;;;;6.89;91.29;100059.80;112771;243;39675;-54
2024/03/12 08:50:39;;;;;;;;;31.00;22.00;;;;;6.95;91.19;100058.02;112389;243;162854;-55
2024/03/12 08:53:15;;;;;;;;;27.33;18.67;;;;;6.95;91.05;100060.05;112839;242;39705;-54
2024/03/12 08:55:57;;;;;;;;;21.33;16.67;;;;;6.87;91.13;100062.52;112293;242;161812;-54
2024/03/12 08:58:36;;;;;;;;;22.25;17.00;;;;;6.84;91.08;100064.17;112711;243;38845;-50
2024/03/12 09:01:14;;;;;;;;;24.67;18.00;;;;;6.86;91.10;100062.70;112689;241;162182;-51
2024/03/12 09:03:53;;;;;;;;;26.25;19.00;;;;;6.90;91.11;100066.42;112616;243;40793;-53
2024/03/12 09:06:28;;;;;;;;;34.00;24.75;;;;;6.96;91.06;100062.22;112828;243;39339;-54
2024/03/12 09:09:08;;;;;;;;;26.00;19.50;;;;;7.03;91.06;100063.15;112576;243;162030;-54
2024/03/12 09:11:46;;;;;;;;;34.50;24.50;;;;;7.10;90.95;100063.09;112795;243;40575;-54
2024/03/12 09:14:32;;;;;;;;;27.75;20.50;;;;;7.21;90.78;100063.81;112516;241;162605;-52
2024/03/12 09:17:10;;;;;;;;;24.00;17.25;;;;;7.24;90.55;100062.38;112760;243;39575;-51
2024/03/12 09:19:57;;;;;;;;;25.67;19.00;;;;;7.21;90.26;100065.09;112521;241;160755;-55
2024/03/12 09:22:39;;;;;;;;;26.75;20.00;;;;;7.14;90.28;100064.98;112663;243;39504;-55
2024/03/12 09:25:14;;;;;;;;;23.33;16.00;;;;;7.08;90.26;100065.81;112585;241;161724;-55
2024/03/12 09:27:50;;;;;;;;;37.00;27.00;;;;;7.11;90.21;100062.98;112565;243;40866;-53
2024/03/12 09:30:32;;;;;;;;;32.50;23.00;;;;;7.17;90.14;100064.66;112812;243;40260;-53
2024/03/12 09:33:14;;;;;;;;;24.33;17.00;;;;;7.19;90.02;100070.70;112335;241;161642;-50
2024/03/12 09:35:52;;;;;;;;;22.67;17.00;;;;;7.21;90.11;100068.27;112513;244;40095;-50
2024/03/12 09:38:30;;;;;;;;;36.25;24.50;;;;;7.25;90.07;100067.69;112362;241;161557;-53
2024/03/12 09:41:10;;;;;;;;;28.00;19.33;;;;;7.33;89.96;100069.34;112525;244;40867;-53
2024/03/12 09:43:51;;;;;;;;;33.00;25.00;;;;;7.32;89.87;100069.56;112399;241;161273;-54
2024/03/12 09:46:36;;;;;;;;;24.50;17.75;;;;;7.38;89.64;100069.48;112642;243;40010;-54
2024/03/12 09:49:19;;;;;;;;;31.00;22.00;;;;;7.37;89.55;100070.95;112597;241;161093;-51
2024/03/12 09:51:54;;;;;;;;;25.50;18.50;;;;;7.43;89.50;100072.02;112598;243;39670;-52
2024/03/12 09:54:36;;;;;;;;;24.67;18.00;;;;;7.43;89.42;100076.75;112813;243;40068;-54
2024/03/12 09:57:22;;;;;;;;;33.00;23.00;;;;;7.42;89.17;100078.52;112428;242;41978;-53
2024/03/12 10:00:05;;;;;;;;;24.50;18.00;;;;;7.40;89.29;100081.42;112846;243;39871;-54
2024/03/12 10:02:46;;;;;;;;;33.00;22.33;;;;;7.48;89.14;100079.40;112420;243;161785;-54
2024/03/12 10:05:23;;;;;;;;;30.00;21.00;;;;;7.54;89.17;100076.24;112784;243;39359;-53
2024/03/12 10:08:18;;;;;;;;;27.00;19.00;;;;;7.59;89.16;100078.16;112513;242;161809;-51
2024/03/12 10:11:01;;;;;;;;;20.00;15.00;;;;;7.70;89.00;100078.25;112422;244;39644;-51
2024/03/12 10:13:40;;;;;;;;;28.50;21.25;;;;;7.81;88.60;100078.11;112372;241;161383;-52
2024/03/12 10:16:24;;;;;;;;;24.75;18.00;;;;;7.83;88.45;100080.14;112728;243;39286;-51
2024/03/12 10:19:25;;;;;;;;;23.00;17.00;;;;;7.85;88.30;100076.70;112701;241;161457;-52
2024/03/12 10:22:17;;;;;;;;;23.50;19.00;;;;;7.86;87.99;100076.06;112624;243;41148;-50
2024/03/12 10:25:10;;;;;;;;;25.50;17.50;;;;;7.82;87.84;100074.95;112675;240;161123;-51
2024/03/12 10:27:58;;;;;;;;;27.00;19.00;;;;;7.83;87.80;100076.40;112560;243;41214;-55
2024/03/12 10:30:35;;;;;;;;;32.00;22.25;;;;;7.85;87.73;100072.98;112794;243;40828;-54
2024/03/12 10:33:31;;;;;;;;;32.00;23.00;;;;;7.90;87.49;100075.46;112343;241;162072;-54
2024/03/12 10:36:10;;;;;;;;;20.50;14.50;;;;;7.96;87.44;100072.42;112791;243;39021;-54
2024/03/12 10:38:44;;;;;;;;;34.00;24.00;;;;;7.90;87.29;100077.44;112352;241;161268;-51
2024/03/12 10:41:23;;;;;;;;;25.00;19.00;;;;;7.90;87.32;100077.23;112806;243;39408;-51
2024/03/12 10:44:04;;;;;;;;;30.00;21.75;;;;;7.94;87.13;100071.55;112602;243;161128;-51
2024/03/12 10:46:44;;;;;;;;;28.00;19.67;;;;;8.04;87.02;100069.82;112713;243;41274;-51
2024/03/12 10:49:22;;;;;;;;;29.50;21.25;;;;;8.07;86.79;100069.23;112663;241;161109;-51
2024/03/12 10:52:04;;;;;;;;;30.00;19.33;;;;;7.97;86.67;100069.76;112633;243;39549;-55
2024/03/12 10:54:49;;;;;;;;;24.25;18.75;;;;;7.91;86.49;100073.33;112853;243;39442;-53
2024/03/12 10:57:28;;;;;;;;;22.00;17.00;;;;;7.96;86.52;100071.80;112487;243;39936;-54
2024/03/12 11:00:09;;;;;;;;;27.00;20.00;;;;;7.93;86.51;100070.69;112800;243;39572;-55
2024/03/12 11:02:45;;;;;;;;;19.75;12.75;;;;;7.94;86.54;100072.30;112391;241;161665;-53
2024/03/12 11:05:26;;;;;;;;;18.50;12.25;;;;;7.85;86.78;100071.22;112774;243;39393;-54
2024/03/12 11:08:09;;;;;;;;;19.00;14.50;;;;;7.89;86.83;100071.38;112490;241;161782;-52
2024/03/12 11:10:48;;;;;;;;;31.50;22.00;;;;;7.96;86.64;100069.27;112432;244;40898;-53
2024/03/12 11:13:24;;;;;;;;;22.67;16.00;;;;;7.95;86.56;100068.75;112301;240;161462;-55
2024/03/12 11:16:12;;;;;;;;;20.00;16.00;;;;;8.00;86.58;100065.02;112430;244;40941;-55
2024/03/12 11:18:51;;;;;;;;;29.00;22.00;;;;;8.04;86.61;100068.67;112494;244;40679;-55
2024/03/12 11:21:39;;;;;;;;;24.00;19.00;;;;;8.08;86.50;100065.23;112512;243;39615;-55
2024/03/12 11:24:29;;;;;;;;;33.00;22.50;;;;;8.04;86.42;100065.82;112848;243;41571;-55
2024/03/12 11:27:06;;;;;;;;;25.50;19.75;;;;;8.01;86.43;100063.91;112375;242;160978;-55
2024/03/12 11:30:19;;;;;;;;;28.75;21.00;;;;;8.09;86.35;100063.58;112842;243;39634;-52
2024/03/12 11:33:03;;;;;;;;;25.67;19.00;;;;;8.12;86.15;100066.63;112366;241;161652;-55
2024/03/12 11:35:37;;;;;;;;;23.00;17.50;;;;;8.14;86.13;100064.33;112434;244;39480;-54
2024/03/12 11:38:16;;;;;;;;;24.50;17.75;;;;;8.20;86.14;100064.96;112281;243;161563;-51
2024/03/12 11:40:52;;;;;;;;;23.00;18.00;;;;;8.23;86.02;100064.52;112422;244;39738;-50
2024/03/12 11:43:41;;;;;;;;;23.33;16.00;;;;;8.28;86.01;100064.71;112323;241;161262;-51
2024/03/12 11:46:39;;;;;;;;;27.25;20.50;;;;;8.26;86.04;100061.89;112584;243;41080;-52
2024/03/12 11:49:38;;;;;;;;;35.25;23.50;;;;;8.36;85.90;100064.71;112655;242;161116;-53
2024/03/12 11:52:35;;;;;;;;;30.33;23.00;;;;;8.35;85.76;100064.26;112621;243;40862;-53
2024/03/12 11:55:12;;;;;;;;;29.25;22.00;;;;;8.29;85.71;100065.19;112725;241;162409;-54
2024/03/12 11:57:51;;;;;;;;;23.50;17.00;;;;;8.30;85.91;100066.15;112595;243;39698;-52
2024/03/12 12:00:40;;;;;;;;;28.25;20.00;;;;;8.30;86.00;100062.92;112855;243;40718;-50
2024/03/12 12:03:21;;;;;;;;;20.00;13.00;;;;;8.32;86.09;100061.23;112411;241;161677;-52
2024/03/12 12:06:03;;;;;;;;;25.75;20.00;;;;;8.31;86.09;100059.75;112821;243;39508;-52
2024/03/12 12:08:38;;;;;;;;;24.75;16.00;;;;;8.35;86.13;100058.33;112393;241;162171;-50
2024/03/12 12:11:28;;;;;;;;;27.33;19.33;;;;;8.42;86.12;100057.89;112763;243;41557;-51
2024/03/12 12:14:08;;;;;;;;;24.50;18.00;;;;;8.45;85.93;100059.38;112473;241;161608;-52
2024/03/12 12:16:57;;;;;;;;;18.33;14.33;;;;;8.44;85.87;100057.44;112634;243;39272;-52
2024/03/12 12:19:44;;;;;;;;;27.00;20.25;;;;;8.38;85.69;100062.67;112613;241;161400;-52
2024/03/12 12:22:24;;;;;;;;;31.50;23.25;;;;;8.30;85.56;100065.54;112593;243;40057;-50
2024/03/12 12:25:06;;;;;;;;;23.75;18.00;;;;;8.22;85.33;100065.16;112377;241;161394;-55